createdAt,value
2019-02-19T00:03:04.785Z,2.7
2019-02-19T00:08:05.319Z,2.7
2019-02-19T00:12:27.971Z,2.6
2019-02-19T00:17:28.304Z,2.6
2019-02-19T00:22:27.707Z,2.5
2019-02-19T00:27:28.153Z,2.5
2019-02-19T00:32:28.167Z,2.4
2019-02-19T00:37:28.481Z,2.4
2019-02-19T00:42:27.389Z,2.4
2019-02-19T00:47:27.598Z,2.3
2019-02-19T00:52:27.169Z,2.3
2019-02-19T00:57:27.987Z,2.3
2019-02-19T01:02:27.576Z,2.2
2019-02-19T01:07:27.965Z,2.1
2019-02-19T01:12:27.755Z,2.1
2019-02-19T01:17:27.928Z,2.0
2019-02-19T01:22:27.578Z,2.0
2019-02-19T01:27:27.695Z,1.9
2019-02-19T01:32:27.477Z,1.9
2019-02-19T01:37:27.636Z,1.9
2019-02-19T01:42:26.958Z,1.7
2019-02-19T01:47:27.626Z,1.6
2019-02-19T01:52:28.250Z,1.7
2019-02-19T01:57:27.036Z,1.6
2019-02-19T02:02:28.197Z,1.5
2019-02-19T02:07:28.921Z,1.5
2019-02-19T02:12:27.202Z,1.5
2019-02-19T02:17:27.767Z,1.4
2019-02-19T02:22:27.916Z,1.4
2019-02-19T02:27:27.753Z,1.3
2019-02-19T02:32:27.917Z,1.3
2019-02-19T02:37:27.948Z,1.3
2019-02-19T02:42:27.676Z,1.3
2019-02-19T02:47:28.485Z,1.4
2019-02-19T02:52:28.112Z,1.4
2019-02-19T02:57:28.162Z,1.3
2019-02-19T03:02:27.807Z,1.3
2019-02-19T03:07:27.376Z,1.3
2019-02-19T03:12:28.219Z,1.4
2019-02-19T03:17:28.537Z,1.4
2019-02-19T03:22:27.859Z,1.3
2019-02-19T03:27:27.914Z,1.2
2019-02-19T03:32:28.303Z,1.2
2019-02-19T03:37:27.731Z,1.2
2019-02-19T03:42:27.889Z,1.3
2019-02-19T03:47:28.564Z,1.3
2019-02-19T03:52:27.581Z,1.3
2019-02-19T03:57:28.100Z,1.4
2019-02-19T04:02:27.845Z,1.4
2019-02-19T04:07:28.364Z,1.4
2019-02-19T04:12:28.220Z,1.4
2019-02-19T04:17:28.557Z,1.4
2019-02-19T04:22:29.573Z,1.3
2019-02-19T04:27:27.523Z,1.3
2019-02-19T04:32:28.512Z,1.1
2019-02-19T04:37:29.848Z,1.1
2019-02-19T04:42:27.682Z,1.1
2019-02-19T04:47:27.640Z,1.1
2019-02-19T04:52:27.543Z,1.0
2019-02-19T04:57:28.781Z,1.0
2019-02-19T05:02:28.968Z,1.0
2019-02-19T05:07:28.806Z,1.1
2019-02-19T05:12:28.058Z,1.1
2019-02-19T05:17:29.219Z,1.2
2019-02-19T05:22:28.442Z,1.2
2019-02-19T05:27:28.234Z,1.2
2019-02-19T05:32:28.193Z,1.2
2019-02-19T05:37:28.441Z,1.3
2019-02-19T05:42:28.398Z,1.4
2019-02-19T05:47:28.149Z,1.3
2019-02-19T05:52:28.289Z,1.2
2019-02-19T05:57:28.363Z,1.2
2019-02-19T06:02:28.426Z,1.2
2019-02-19T06:07:28.486Z,1.2
2019-02-19T06:12:28.954Z,1.2
2019-02-19T06:17:28.945Z,1.3
2019-02-19T06:22:28.639Z,1.4
2019-02-19T06:27:28.284Z,1.4
2019-02-19T06:32:28.845Z,1.4
2019-02-19T06:37:28.034Z,1.5
2019-02-19T06:42:28.099Z,1.5
2019-02-19T06:47:29.343Z,1.6
2019-02-19T06:52:28.348Z,1.6
2019-02-19T06:57:27.815Z,1.7
2019-02-19T07:02:27.724Z,1.9
2019-02-19T07:07:29.032Z,2.3
2019-02-19T07:12:28.719Z,2.2
2019-02-19T07:17:28.163Z,2.6
2019-02-19T07:22:28.215Z,2.9
2019-02-19T07:27:28.604Z,3.4
2019-02-19T07:32:28.466Z,3.4
2019-02-19T07:37:28.671Z,3.7
2019-02-19T07:42:28.333Z,4.0
2019-02-19T07:47:28.357Z,4.4
2019-02-19T07:52:28.992Z,4.8
2019-02-19T07:57:28.308Z,5.1
2019-02-19T08:02:29.893Z,5.3
2019-02-19T08:07:28.978Z,5.3
2019-02-19T08:12:29.192Z,5.6
2019-02-19T08:17:33.239Z,6.0
2019-02-19T08:22:28.665Z,6.2
2019-02-19T08:27:28.523Z,6.4
2019-02-19T08:32:28.313Z,6.8
2019-02-19T08:37:28.486Z,7.2
2019-02-19T08:42:27.926Z,7.4
2019-02-19T08:47:28.114Z,7.8
2019-02-19T08:52:28.081Z,7.7
2019-02-19T08:57:28.963Z,8.2
2019-02-19T09:02:29.069Z,8.8
2019-02-19T09:07:29.489Z,10.0
2019-02-19T09:12:29.762Z,10.0
2019-02-19T09:17:29.025Z,10.3
2019-02-19T09:22:28.491Z,10.9
2019-02-19T09:27:29.149Z,11.3
2019-02-19T09:32:29.081Z,11.6
2019-02-19T09:37:28.106Z,11.8
2019-02-19T09:42:29.386Z,12.0
2019-02-19T09:47:29.065Z,12.5
2019-02-19T09:52:28.675Z,12.6
2019-02-19T09:57:29.163Z,12.7
2019-02-19T10:02:28.744Z,12.8
2019-02-19T10:07:28.763Z,12.9
2019-02-19T10:12:28.881Z,13.0
2019-02-19T10:17:28.706Z,13.0
2019-02-19T10:22:28.751Z,13.0
2019-02-19T10:27:28.769Z,13.1
2019-02-19T10:32:28.922Z,13.6
2019-02-19T10:37:28.398Z,14.1
2019-02-19T10:42:28.679Z,14.0
2019-02-19T10:47:28.625Z,14.4
2019-02-19T10:52:28.541Z,14.6
2019-02-19T10:57:27.994Z,14.7
2019-02-19T11:02:27.921Z,14.8
2019-02-19T11:07:28.983Z,15.4
2019-02-19T11:12:28.689Z,15.4
2019-02-19T11:17:28.478Z,15.5
2019-02-19T11:22:28.557Z,15.8
2019-02-19T11:27:29.396Z,15.7
2019-02-19T11:32:28.693Z,15.4
2019-02-19T11:37:28.626Z,15.2
2019-02-19T11:42:28.364Z,15.2
2019-02-19T11:47:28.781Z,15.0
2019-02-19T11:52:28.598Z,14.5
2019-02-19T11:57:29.127Z,13.9
2019-02-19T12:02:32.820Z,13.8
2019-02-19T12:07:28.589Z,13.5
2019-02-19T12:12:28.626Z,13.2
2019-02-19T12:17:29.183Z,12.9
2019-02-19T12:22:28.729Z,12.8
2019-02-19T12:27:28.546Z,12.6
2019-02-19T12:32:29.033Z,12.4
2019-02-19T12:37:27.908Z,12.2
2019-02-19T12:42:28.386Z,12.1
2019-02-19T12:47:29.399Z,12.0
2019-02-19T12:52:28.568Z,12.1
2019-02-19T12:57:28.692Z,12.0
2019-02-19T13:02:28.706Z,12.0
2019-02-19T13:07:28.164Z,11.9
2019-02-19T13:12:28.141Z,12.1
2019-02-19T13:17:29.549Z,12.0
2019-02-19T13:22:28.438Z,12.1
2019-02-19T13:27:28.969Z,12.1
2019-02-19T13:32:28.023Z,12.1
2019-02-19T13:37:28.405Z,12.1
2019-02-19T13:42:29.061Z,12.1
2019-02-19T13:47:29.019Z,12.0
2019-02-19T13:52:29.088Z,11.9
2019-02-19T13:57:28.356Z,11.8
2019-02-19T14:02:28.967Z,11.5
2019-02-19T14:07:27.868Z,11.3
2019-02-19T14:12:28.562Z,11.2
2019-02-19T14:17:28.909Z,11.2
2019-02-19T14:22:27.844Z,11.1
2019-02-19T14:27:28.498Z,11.0
2019-02-19T14:32:28.428Z,11.1
2019-02-19T14:37:28.360Z,11.0
2019-02-19T14:42:28.633Z,11.0
2019-02-19T14:47:28.732Z,11.1
2019-02-19T14:52:28.237Z,11.2
2019-02-19T14:57:27.714Z,11.2
2019-02-19T15:02:28.450Z,11.4
2019-02-19T15:07:28.649Z,11.3
2019-02-19T15:12:28.604Z,11.1
2019-02-19T15:17:28.936Z,11.2
2019-02-19T15:22:28.632Z,11.2
2019-02-19T15:27:28.512Z,11.3
2019-02-19T15:32:27.506Z,11.5
2019-02-19T15:37:28.102Z,11.3
2019-02-19T15:42:28.510Z,11.1
2019-02-19T15:47:28.609Z,11.0
2019-02-19T15:52:28.581Z,11.0
2019-02-19T15:57:28.279Z,10.9
2019-02-19T16:02:28.421Z,10.9
2019-02-19T16:07:28.318Z,10.8
2019-02-19T16:12:28.068Z,10.8
2019-02-19T16:17:29.824Z,10.8
2019-02-19T16:22:28.304Z,10.8
2019-02-19T16:27:28.207Z,10.8
2019-02-19T16:32:28.404Z,10.8
2019-02-19T16:37:28.736Z,10.9
2019-02-19T16:42:28.677Z,10.8
2019-02-19T16:47:28.468Z,10.7
2019-02-19T16:52:28.384Z,10.7
2019-02-19T16:57:28.236Z,10.6
2019-02-19T17:02:28.359Z,10.6
2019-02-19T17:07:28.932Z,10.5
2019-02-19T17:12:28.445Z,10.4
2019-02-19T17:17:28.106Z,10.2
2019-02-19T17:22:28.456Z,10.1
2019-02-19T17:27:28.368Z,10.1
2019-02-19T17:32:27.971Z,10.1
2019-02-19T17:37:28.183Z,10.1
2019-02-19T17:42:28.499Z,10.1
2019-02-19T17:47:27.970Z,10.0
2019-02-19T17:52:26.859Z,10.0
2019-02-19T17:57:28.306Z,10.0
2019-02-19T18:02:28.184Z,9.9
2019-02-19T18:07:28.020Z,9.9
2019-02-19T18:12:28.525Z,9.8
2019-02-19T18:17:28.486Z,9.7
2019-02-19T18:22:27.581Z,9.7
2019-02-19T18:27:28.369Z,9.7
2019-02-19T18:32:28.567Z,9.5
2019-02-19T18:37:27.455Z,9.5
2019-02-19T18:42:28.223Z,9.3
2019-02-19T18:47:27.917Z,9.3
2019-02-19T18:52:27.857Z,9.3
2019-02-19T18:57:28.414Z,9.2
2019-02-19T19:02:27.015Z,9.0
2019-02-19T19:07:28.762Z,8.9
2019-02-19T19:12:27.570Z,8.7
2019-02-19T19:17:28.015Z,8.7
2019-02-19T19:22:28.719Z,8.7
2019-02-19T19:27:28.297Z,8.6
2019-02-19T19:32:29.412Z,8.6
2019-02-19T19:37:28.236Z,8.6
2019-02-19T19:42:28.745Z,8.6
2019-02-19T19:47:27.892Z,8.5
2019-02-19T19:52:28.155Z,8.4
2019-02-19T19:57:28.226Z,8.3
2019-02-19T20:02:28.112Z,8.3
2019-02-19T20:07:28.719Z,8.1
2019-02-19T20:12:28.126Z,8.0
2019-02-19T20:17:28.348Z,7.9
2019-02-19T20:22:28.250Z,7.8
2019-02-19T20:27:29.131Z,7.7
2019-02-19T20:32:28.069Z,7.6
2019-02-19T20:37:28.015Z,7.5
2019-02-19T20:42:27.743Z,7.3
2019-02-19T20:47:27.875Z,7.2
2019-02-19T20:52:27.701Z,7.1
2019-02-19T20:57:27.609Z,7.0
2019-02-19T21:02:28.113Z,6.9
2019-02-19T21:07:28.147Z,6.9
2019-02-19T21:12:28.956Z,6.7
2019-02-19T21:17:27.982Z,6.3
2019-02-19T21:22:27.919Z,6.1
2019-02-19T21:27:28.070Z,6.1
2019-02-19T21:32:28.141Z,6.1
2019-02-19T21:37:28.242Z,5.9
2019-02-19T21:42:28.959Z,5.8
2019-02-19T21:47:28.196Z,5.6
2019-02-19T21:52:28.636Z,5.5
2019-02-19T21:57:27.799Z,5.4
2019-02-19T22:02:28.176Z,5.1
2019-02-19T22:07:27.731Z,5.0
2019-02-19T22:12:27.779Z,5.0
2019-02-19T22:17:27.836Z,4.9
2019-02-19T22:22:28.092Z,4.9
2019-02-19T22:27:27.987Z,4.9
2019-02-19T22:32:29.290Z,4.9
2019-02-19T22:37:29.587Z,4.8
2019-02-19T22:42:27.871Z,4.7
2019-02-19T22:47:28.092Z,4.7
2019-02-19T22:52:27.434Z,4.6
2019-02-19T22:57:28.699Z,4.5
2019-02-19T23:02:28.555Z,4.4
2019-02-19T23:07:27.981Z,4.3
2019-02-19T23:12:29.406Z,4.2
2019-02-19T23:22:45.019Z,3.9
2019-02-19T23:27:44.296Z,3.9
2019-02-19T23:32:44.518Z,3.8
2019-02-19T23:37:43.518Z,3.8
2019-02-19T23:42:44.558Z,3.6
2019-02-19T23:47:44.446Z,3.6
2019-02-19T23:52:44.010Z,3.6
2019-02-19T23:57:45.956Z,3.3
